createdAt,value
2018-11-20T00:02:48.561Z,76.08
2018-11-20T00:05:35.983Z,76.08
2018-11-20T00:08:23.437Z,76.37
2018-11-20T00:11:30.286Z,76.13
2018-11-20T00:14:17.736Z,76.13
2018-11-20T00:17:05.210Z,76.27
2018-11-20T00:19:52.641Z,76.15
2018-11-20T00:22:59.521Z,75.93
2018-11-20T00:25:46.954Z,75.93
2018-11-20T00:28:34.410Z,75.98
2018-11-20T00:31:32.855Z,75.26
2018-11-20T00:34:39.743Z,75.79
2018-11-20T00:37:38.361Z,75.41
2018-11-20T00:40:26.033Z,75.41
2018-11-20T00:43:13.493Z,75.41
2018-11-20T00:46:20.350Z,75.36
2018-11-20T00:49:07.805Z,75.36
2018-11-20T00:51:55.224Z,75.36
2018-11-20T00:54:42.692Z,75.28
2018-11-20T00:57:30.108Z,74.90
2018-11-20T01:00:36.990Z,74.74
2018-11-20T01:03:24.416Z,74.74
2018-11-20T01:06:31.299Z,74.53
2018-11-20T01:12:42.832Z,74.44
2018-11-20T01:15:30.305Z,74.44
2018-11-20T01:18:17.731Z,74.73
2018-11-20T01:21:05.185Z,75.01
2018-11-20T01:23:52.614Z,75.36
2018-11-20T01:26:40.063Z,75.65
2018-11-20T01:29:27.497Z,75.95
2018-11-20T01:32:14.944Z,76.30
2018-11-20T01:35:02.383Z,76.61
2018-11-20T01:37:49.835Z,76.86
2018-11-20T01:40:37.264Z,77.08
2018-11-20T01:43:24.728Z,77.16
2018-11-20T01:46:12.156Z,77.17
2018-11-20T01:48:59.604Z,77.31
2018-11-20T01:51:47.047Z,77.33
2018-11-20T01:54:34.505Z,77.57
2018-11-20T01:57:21.942Z,77.82
2018-11-20T02:00:17.049Z,77.99
2018-11-20T02:03:04.507Z,78.01
2018-11-20T02:05:41.940Z,77.96
2018-11-20T02:08:29.397Z,77.70
2018-11-20T02:11:16.830Z,77.58
2018-11-20T02:14:43.078Z,77.50
2018-11-20T02:17:33.819Z,77.12
2018-11-20T02:20:21.276Z,76.75
2018-11-20T02:23:08.704Z,76.60
2018-11-20T02:25:56.165Z,76.64
2018-11-20T02:28:43.601Z,76.64
2018-11-20T02:31:31.067Z,76.77
2018-11-20T02:34:19.610Z,76.89
2018-11-20T02:37:07.078Z,77.10
2018-11-20T02:39:54.531Z,77.29
2018-11-20T02:42:41.962Z,77.49
2018-11-20T02:45:29.418Z,77.51
2018-11-20T02:48:16.855Z,77.50
2018-11-20T02:51:04.324Z,77.45
2018-11-20T02:53:51.748Z,77.62
2018-11-20T02:56:39.203Z,77.61
2018-11-20T02:59:26.637Z,77.73
2018-11-20T03:02:14.102Z,78.05
2018-11-20T03:05:01.550Z,78.24
2018-11-20T03:07:49.010Z,78.41
2018-11-20T03:10:36.459Z,78.59
2018-11-20T03:13:24.105Z,78.92
2018-11-20T03:16:11.577Z,79.13
2018-11-20T03:18:59.008Z,79.56
2018-11-20T03:21:46.480Z,79.72
2018-11-20T03:24:33.909Z,79.92
2018-11-20T03:27:21.371Z,80.15
2018-11-20T03:30:47.574Z,80.37
2018-11-20T03:33:35.035Z,80.49
2018-11-20T03:36:22.474Z,80.35
2018-11-20T03:39:09.922Z,80.25
2018-11-20T03:41:57.356Z,80.29
2018-11-20T03:44:44.818Z,80.15
2018-11-20T03:47:32.290Z,80.23
2018-11-20T03:50:19.716Z,80.43
2018-11-20T03:53:07.174Z,80.37
2018-11-20T03:55:54.603Z,80.32
2018-11-20T03:58:42.195Z,80.35
2018-11-20T04:01:29.628Z,80.49
2018-11-20T04:04:17.071Z,80.67
2018-11-20T04:07:04.511Z,80.76
2018-11-20T04:09:51.961Z,80.70
2018-11-20T04:12:39.811Z,80.75
2018-11-20T04:15:27.261Z,80.67
2018-11-20T04:18:14.693Z,80.47
2018-11-20T04:21:02.155Z,80.25
2018-11-20T04:26:39.224Z,80.00
2018-11-20T04:29:26.648Z,80.02
2018-11-20T04:32:34.421Z,80.05
2018-11-20T04:35:22.757Z,80.22
2018-11-20T04:38:10.183Z,80.07
2018-11-20T04:40:57.640Z,79.16
2018-11-20T04:43:45.068Z,78.74
2018-11-20T04:46:32.776Z,78.52
2018-11-20T04:49:20.209Z,78.29
2018-11-20T04:52:07.674Z,78.26
2018-11-20T04:54:55.103Z,78.15
2018-11-20T04:57:42.588Z,78.10
2018-11-20T05:00:29.979Z,77.55
2018-11-20T05:03:17.452Z,77.00
2018-11-20T05:09:16.879Z,75.86
2018-11-20T05:12:04.313Z,75.57
2018-11-20T05:14:51.778Z,75.09
2018-11-20T05:17:28.996Z,74.72
2018-11-20T05:20:16.461Z,74.22
2018-11-20T05:23:03.888Z,74.29
2018-11-20T05:25:51.357Z,74.21
2018-11-20T05:28:58.237Z,74.93
2018-11-20T05:31:45.740Z,74.93
2018-11-20T05:34:33.200Z,74.55
2018-11-20T05:37:20.645Z,74.58
2018-11-20T05:39:55.817Z,74.37
2018-11-20T05:42:43.245Z,74.32
2018-11-20T05:45:30.699Z,74.25
2018-11-20T05:48:18.142Z,73.94
2018-11-20T05:51:05.606Z,73.38
2018-11-20T05:53:53.051Z,73.15
2018-11-20T05:56:40.508Z,73.10
2018-11-20T06:02:33.189Z,72.28
2018-11-20T06:05:20.635Z,71.85
2018-11-20T06:08:10.574Z,71.65
2018-11-20T06:10:58.022Z,71.51
2018-11-20T06:13:45.451Z,71.51
2018-11-20T06:16:32.913Z,71.63
2018-11-20T06:19:20.351Z,71.72
2018-11-20T06:22:07.805Z,71.77
2018-11-20T06:24:55.234Z,71.90
2018-11-20T06:27:42.697Z,72.24
2018-11-20T06:30:30.127Z,72.43
2018-11-20T06:33:17.584Z,72.62
2018-11-20T06:36:05.015Z,72.73
2018-11-20T06:38:52.471Z,72.79
2018-11-20T06:41:39.917Z,72.73
2018-11-20T06:44:16.447Z,72.62
2018-11-20T06:47:03.969Z,72.66
2018-11-20T06:49:51.362Z,72.86
2018-11-20T06:52:38.826Z,72.51
2018-11-20T06:55:26.274Z,72.52
2018-11-20T06:58:13.728Z,72.46
2018-11-20T07:01:01.166Z,72.36
2018-11-20T07:03:48.626Z,72.35
2018-11-20T07:06:36.058Z,72.20
2018-11-20T07:09:24.398Z,71.96
2018-11-20T07:12:11.826Z,71.70
2018-11-20T07:14:59.309Z,71.74
2018-11-20T07:17:46.727Z,71.42
2018-11-20T07:20:34.190Z,71.50
2018-11-20T07:23:21.624Z,71.55
2018-11-20T07:26:09.083Z,71.58
2018-11-20T07:28:56.506Z,71.35
2018-11-20T07:31:44.013Z,71.30
2018-11-20T07:34:50.876Z,71.42
2018-11-20T07:37:38.278Z,71.42
2018-11-20T07:40:26.246Z,71.41
2018-11-20T07:43:13.711Z,71.37
2018-11-20T07:46:01.154Z,71.22
2018-11-20T07:51:38.255Z,71.07
2018-11-20T07:54:25.650Z,71.05
2018-11-20T07:57:13.100Z,71.14
2018-11-20T08:00:00.532Z,71.12
2018-11-20T08:02:47.981Z,70.94
2018-11-20T08:05:54.838Z,71.06
2018-11-20T08:08:42.427Z,71.06
2018-11-20T08:11:29.729Z,70.82
2018-11-20T08:14:17.188Z,70.94
2018-11-20T08:17:04.675Z,69.65
2018-11-20T08:19:51.408Z,70.51
2018-11-20T08:22:58.288Z,70.71
2018-11-20T08:25:45.792Z,70.71
2018-11-20T08:28:41.731Z,70.81
2018-11-20T08:31:29.122Z,70.81
2018-11-20T08:37:16.470Z,70.57
2018-11-20T08:40:03.894Z,70.57
2018-11-20T08:42:51.373Z,70.42
2018-11-20T08:45:58.240Z,70.68
2018-11-20T08:49:05.123Z,70.26
2018-11-20T08:51:52.556Z,70.26
2018-11-20T08:54:59.432Z,70.46
2018-11-20T08:57:46.873Z,70.46
2018-11-20T09:00:34.335Z,70.15
2018-11-20T09:03:41.190Z,70.78
2018-11-20T09:06:28.643Z,70.78
2018-11-20T09:09:35.526Z,71.16
2018-11-20T09:15:31.030Z,71.36
2018-11-20T09:18:18.476Z,71.36
2018-11-20T09:21:05.976Z,71.16
2018-11-20T09:24:12.826Z,71.32
2018-11-20T09:27:19.708Z,71.58
2018-11-20T09:30:07.171Z,71.58
2018-11-20T09:32:54.598Z,71.36
2018-11-20T09:35:42.174Z,71.43
2018-11-20T09:38:18.188Z,71.48
2018-11-20T09:41:09.513Z,71.43
2018-11-20T09:44:18.137Z,71.43
2018-11-20T09:47:05.651Z,71.80
2018-11-20T09:49:53.162Z,71.78
2018-11-20T09:52:40.715Z,71.54
2018-11-20T09:55:29.562Z,71.83
2018-11-20T09:58:17.028Z,72.32
2018-11-20T10:01:04.461Z,72.43
2018-11-20T10:03:59.365Z,72.47
2018-11-20T10:06:46.805Z,72.61
2018-11-20T10:09:34.250Z,72.80
2018-11-20T10:12:21.678Z,72.80
2018-11-20T10:15:28.562Z,72.67
2018-11-20T10:18:35.414Z,72.25
2018-11-20T10:21:22.968Z,72.60
2018-11-20T10:26:58.959Z,72.48
2018-11-20T10:30:05.856Z,72.50
2018-11-20T10:33:12.731Z,72.22
2018-11-20T10:36:19.620Z,72.21
2018-11-20T10:39:27.959Z,72.05
2018-11-20T10:42:34.835Z,71.93
2018-11-20T10:45:35.580Z,71.95
2018-11-20T10:48:22.932Z,71.95
2018-11-20T10:51:10.430Z,71.92
2018-11-20T10:53:57.818Z,71.88
2018-11-20T10:56:45.285Z,71.41
2018-11-20T11:05:49.659Z,71.18
2018-11-20T11:08:37.270Z,70.49
2018-11-20T11:11:25.160Z,69.99
2018-11-20T11:14:12.553Z,70.37
2018-11-20T11:16:59.994Z,70.36
2018-11-20T11:19:47.453Z,70.24
2018-11-20T11:22:34.887Z,70.30
2018-11-20T11:25:22.343Z,70.42
2018-11-20T11:28:09.790Z,70.33
2018-11-20T11:30:57.243Z,70.15
2018-11-20T11:34:04.119Z,69.85
2018-11-20T11:36:51.569Z,69.85
2018-11-20T11:39:58.453Z,69.86
2018-11-20T11:42:45.884Z,69.86
2018-11-20T11:45:33.341Z,69.75
2018-11-20T11:48:20.777Z,69.56
2018-11-20T11:51:08.233Z,69.59
2018-11-20T11:54:15.109Z,68.79
2018-11-20T11:57:02.553Z,68.79
2018-11-20T11:59:49.973Z,69.29
2018-11-20T12:05:24.259Z,68.64
2018-11-20T12:08:11.720Z,68.69
2018-11-20T12:10:59.148Z,68.30
2018-11-20T12:13:46.598Z,68.07
2018-11-20T12:16:34.055Z,68.22
2018-11-20T12:19:21.486Z,68.25
2018-11-20T12:22:08.941Z,67.98
2018-11-20T12:24:56.362Z,68.05
2018-11-20T12:27:43.822Z,68.25
2018-11-20T12:30:32.675Z,68.14
2018-11-20T12:33:18.703Z,68.35
2018-11-20T12:36:06.138Z,68.51
2018-11-20T12:38:53.592Z,68.66
2018-11-20T12:41:41.020Z,68.73
2018-11-20T12:44:28.480Z,68.88
2018-11-20T12:50:21.077Z,68.43
2018-11-20T12:53:08.558Z,68.04
2018-11-20T12:55:55.988Z,67.80
2018-11-20T12:58:43.444Z,67.83
2018-11-20T13:01:30.871Z,67.78
2018-11-20T13:04:37.747Z,67.66
2018-11-20T13:07:25.514Z,68.29
2018-11-20T13:10:12.971Z,68.29
2018-11-20T13:13:00.659Z,68.18
2018-11-20T13:15:49.441Z,67.60
2018-11-20T13:18:35.291Z,68.00
2018-11-20T13:21:22.753Z,67.81
2018-11-20T13:24:11.955Z,68.09
2018-11-20T13:26:57.995Z,68.09
2018-11-20T13:29:45.450Z,68.11
2018-11-20T13:32:32.900Z,68.10
2018-11-20T13:35:20.350Z,68.32
2018-11-20T13:38:29.324Z,68.09
2018-11-20T13:41:42.324Z,68.09
2018-11-20T13:44:51.965Z,68.30
2018-11-20T13:47:37.789Z,68.30
2018-11-20T13:50:44.671Z,68.27
2018-11-20T13:53:32.109Z,68.27
2018-11-20T13:56:19.571Z,68.92
2018-11-20T13:59:26.431Z,68.13
2018-11-20T14:02:33.315Z,67.40
2018-11-20T14:05:40.170Z,67.77
2018-11-20T14:08:47.073Z,68.14
2018-11-20T14:11:36.515Z,68.14
2018-11-20T14:14:21.987Z,67.82
2018-11-20T14:17:09.428Z,68.10
2018-11-20T14:20:16.306Z,67.95
2018-11-20T14:23:23.239Z,68.44
2018-11-20T14:26:30.096Z,68.49
2018-11-20T14:29:17.557Z,68.49
2018-11-20T14:32:05.015Z,68.80
2018-11-20T14:34:44.712Z,68.96
2018-11-20T14:37:51.594Z,69.24
2018-11-20T14:41:01.051Z,69.28
2018-11-20T14:43:45.923Z,69.28
2018-11-20T14:46:52.785Z,69.57
2018-11-20T14:49:41.012Z,69.57
2018-11-20T14:52:27.700Z,69.72
2018-11-20T14:55:15.130Z,69.88
2018-11-20T14:58:02.771Z,70.04
2018-11-20T15:00:50.104Z,70.23
2018-11-20T15:03:37.576Z,70.54
2018-11-20T15:06:25.003Z,70.83
2018-11-20T15:09:12.456Z,71.02
2018-11-20T15:11:59.884Z,71.14
2018-11-20T15:14:47.337Z,71.29
2018-11-20T15:17:34.773Z,71.42
2018-11-20T15:20:22.239Z,71.56
2018-11-20T15:23:09.669Z,71.65
2018-11-20T15:26:03.864Z,71.74
2018-11-20T15:28:44.557Z,71.76
2018-11-20T15:31:32.020Z,71.87
2018-11-20T15:34:19.464Z,72.04
2018-11-20T15:37:06.927Z,72.49
2018-11-20T15:39:54.352Z,72.37
2018-11-20T15:42:41.822Z,72.59
2018-11-20T15:45:29.254Z,72.82
2018-11-20T15:48:16.723Z,72.91
2018-11-20T15:54:16.625Z,73.23
2018-11-20T15:57:04.075Z,73.21
2018-11-20T15:59:56.017Z,73.38
2018-11-20T16:02:38.947Z,73.53
2018-11-20T16:05:26.591Z,73.66
2018-11-20T16:08:14.048Z,73.85
2018-11-20T16:11:01.477Z,73.91
2018-11-20T16:13:48.938Z,74.02
2018-11-20T16:16:36.366Z,74.00
2018-11-20T16:19:24.170Z,74.12
2018-11-20T16:22:11.600Z,74.24
2018-11-20T16:24:59.056Z,74.37
2018-11-20T16:27:46.484Z,74.50
2018-11-20T16:30:33.935Z,74.51
2018-11-20T16:33:21.413Z,74.58
2018-11-20T16:36:08.843Z,74.62
2018-11-20T16:38:56.301Z,74.66
2018-11-20T16:41:43.723Z,74.71
2018-11-20T16:44:31.996Z,74.82
2018-11-20T16:47:19.426Z,74.96
2018-11-20T16:50:06.887Z,75.02
2018-11-20T16:52:54.329Z,75.15
2018-11-20T16:55:41.788Z,75.26
2018-11-20T16:58:29.217Z,75.33
2018-11-20T17:01:16.668Z,75.44
2018-11-20T17:04:04.124Z,75.51
2018-11-20T17:06:51.553Z,75.52
2018-11-20T17:09:39.003Z,75.59
2018-11-20T17:12:26.440Z,75.67
2018-11-20T17:15:13.896Z,75.80
2018-11-20T17:18:01.320Z,75.92
2018-11-20T17:20:48.784Z,76.02
2018-11-20T17:23:36.206Z,76.13
2018-11-20T17:26:23.661Z,76.33
2018-11-20T17:29:11.090Z,76.54
2018-11-20T17:31:58.534Z,76.47
2018-11-20T17:34:45.957Z,76.66
2018-11-20T17:37:33.413Z,76.73
2018-11-20T17:40:21.149Z,76.84
2018-11-20T17:43:08.306Z,76.93
2018-11-20T17:45:55.731Z,77.08
2018-11-20T17:48:43.186Z,77.16
2018-11-20T17:51:30.640Z,77.13
2018-11-20T17:54:18.068Z,77.21
2018-11-20T17:57:24.949Z,77.23
2018-11-20T18:00:12.381Z,77.33
2018-11-20T18:03:02.009Z,77.38
2018-11-20T18:05:49.432Z,77.59
2018-11-20T18:08:36.896Z,77.65
2018-11-20T18:11:25.065Z,77.89
2018-11-20T18:14:12.523Z,77.85
2018-11-20T18:16:59.960Z,77.88
2018-11-20T18:19:47.405Z,77.90
2018-11-20T18:22:35.228Z,77.87
2018-11-20T18:25:22.685Z,77.87
2018-11-20T18:28:10.122Z,77.89
2018-11-20T18:30:57.572Z,77.93
2018-11-20T18:33:45.039Z,77.83
2018-11-20T18:36:32.467Z,77.77
2018-11-20T18:39:19.942Z,77.62
2018-11-20T18:42:07.385Z,77.65
2018-11-20T18:44:54.885Z,77.52
2018-11-20T18:47:42.272Z,77.39
2018-11-20T18:50:29.724Z,77.33
2018-11-20T18:53:17.154Z,77.15
2018-11-20T18:56:04.616Z,77.06
2018-11-20T18:58:52.046Z,76.96
2018-11-20T19:01:39.512Z,76.91
2018-11-20T19:04:26.942Z,76.83
2018-11-20T19:07:14.393Z,76.63
2018-11-20T19:10:01.848Z,76.61
2018-11-20T19:12:49.282Z,76.50
2018-11-20T19:15:36.741Z,76.44
2018-11-20T19:18:24.168Z,76.36
2018-11-20T19:21:11.624Z,76.32
2018-11-20T19:23:59.081Z,76.35
2018-11-20T19:26:46.517Z,76.26
2018-11-20T19:29:33.960Z,76.20
2018-11-20T19:32:21.414Z,76.16
2018-11-20T19:35:08.844Z,76.09
2018-11-20T19:37:56.297Z,76.07
2018-11-20T19:40:43.777Z,76.05
2018-11-20T19:43:31.206Z,76.05
2018-11-20T19:46:18.682Z,75.79
2018-11-20T19:49:06.150Z,75.82
2018-11-20T19:52:00.829Z,75.79
2018-11-20T19:54:41.029Z,75.61
2018-11-20T19:57:28.495Z,75.55
2018-11-20T20:00:15.936Z,75.55
2018-11-20T20:03:03.531Z,75.37
2018-11-20T20:05:50.956Z,75.31
2018-11-20T20:11:29.569Z,75.09
2018-11-20T20:14:17.025Z,74.97
2018-11-20T20:17:04.461Z,74.82
2018-11-20T20:19:51.917Z,74.86
2018-11-20T20:22:39.389Z,74.79
2018-11-20T20:25:26.943Z,74.73
2018-11-20T20:28:14.403Z,74.73
2018-11-20T20:32:58.889Z,74.56
2018-11-20T20:35:45.261Z,74.35
2018-11-20T20:38:31.574Z,74.21
2018-11-20T20:41:32.137Z,74.42
2018-11-20T20:44:18.779Z,74.36
2018-11-20T20:47:04.926Z,74.37
2018-11-20T20:49:49.607Z,74.10
2018-11-20T20:52:44.272Z,74.14
2018-11-20T20:55:31.757Z,74.00
2018-11-20T20:58:07.567Z,73.88
2018-11-20T21:00:53.705Z,73.71
2018-11-20T21:03:41.161Z,73.73
2018-11-20T21:06:37.893Z,73.73
2018-11-20T21:09:26.478Z,73.93
2018-11-20T21:12:19.548Z,73.40
2018-11-20T21:15:02.869Z,73.40
2018-11-20T21:17:50.345Z,73.60
2018-11-20T21:20:46.845Z,73.62
2018-11-20T21:23:37.092Z,73.53
2018-11-20T21:26:24.553Z,73.51
2018-11-20T21:29:14.992Z,73.47
2018-11-20T21:32:17.612Z,73.41
2018-11-20T21:35:03.873Z,73.25
2018-11-20T21:38:00.597Z,72.97
2018-11-20T21:41:00.331Z,72.53
2018-11-20T21:43:50.519Z,72.42
2018-11-20T21:46:49.968Z,72.42
2018-11-20T21:49:42.364Z,72.51
2018-11-20T21:52:38.059Z,72.41
2018-11-20T21:55:24.913Z,72.46
2018-11-20T21:58:15.702Z,72.39
2018-11-20T22:01:11.624Z,72.23
2018-11-20T22:03:58.236Z,72.37
2018-11-20T22:06:44.296Z,72.13
2018-11-20T22:09:34.687Z,71.94
2018-11-20T22:12:21.270Z,72.11
2018-11-20T22:15:07.418Z,72.19
2018-11-20T22:17:53.892Z,72.04
2018-11-20T22:20:39.906Z,71.75
2018-11-20T22:23:30.101Z,71.54
2018-11-20T22:26:06.759Z,71.37
2018-11-20T22:29:09.633Z,71.39
2018-11-20T22:32:15.259Z,71.45
2018-11-20T22:35:04.896Z,71.52
2018-11-20T22:37:49.029Z,71.30
2018-11-20T22:40:45.448Z,71.40
2018-11-20T22:43:30.268Z,71.31
2018-11-20T22:46:16.497Z,71.28
2018-11-20T22:49:02.797Z,71.47
2018-11-20T22:51:49.204Z,71.37
2018-11-20T22:54:35.576Z,71.47
2018-11-20T22:57:13.434Z,71.36
2018-11-20T23:00:03.809Z,71.33
2018-11-20T23:02:54.472Z,71.37
2018-11-20T23:05:39.839Z,71.29
2018-11-20T23:08:08.181Z,71.41
2018-11-20T23:10:36.537Z,71.45
2018-11-20T23:13:05.380Z,71.50
2018-11-20T23:15:33.770Z,71.54
2018-11-20T23:18:02.111Z,71.64
2018-11-20T23:20:30.448Z,71.70
2018-11-20T23:22:58.817Z,71.66
2018-11-20T23:25:27.154Z,71.77
2018-11-20T23:27:55.522Z,71.68
2018-11-20T23:30:23.864Z,71.71
2018-11-20T23:32:52.238Z,71.75
2018-11-20T23:35:20.574Z,71.80
2018-11-20T23:37:48.940Z,71.76
2018-11-20T23:40:17.282Z,71.84
2018-11-20T23:42:45.649Z,71.82
2018-11-20T23:45:14.701Z,71.94
2018-11-20T23:47:43.065Z,71.82
2018-11-20T23:50:13.102Z,71.91
2018-11-20T23:52:41.473Z,71.85
2018-11-20T23:55:12.324Z,71.76
2018-11-20T23:57:40.730Z,71.83
